Time;durP1;ratioP1;P1;durP2;ratioP2;P2;SDS_P1;SDS_P2;PMS_P1;PMS_P2;Temp;Humidity;BMP_temperature;BMP_pressure;BME280_temperature;BME280_humidity;BME280_pressure;Samples;Min_cycle;Max_cycle;Signal;HPM_P1;HPM_P2
2023/04/15 00:00:53;;;;;;;;;;;;;;;0.81;42.42;102914.28;5055501;28;19917;-70
2023/04/15 00:03:19;;;;;;;;;;;;;;;0.80;41.95;102917.81;5055393;28;19920;-70
2023/04/15 00:05:45;;;;;;;;;;;;;;;0.78;42.29;102913.50;5054383;28;20373;-69
2023/04/15 00:08:11;;;;;;;;;;;;;;;0.77;42.29;102912.66;5055643;28;20147;-69
2023/04/15 00:10:37;;;;;;;;;;;;;;;0.74;42.77;102912.75;5059677;28;19920;-70
2023/04/15 00:13:03;;;;;;;;;;;;;;;0.74;42.45;102912.75;5062671;28;19912;-71
2023/04/15 00:15:28;;;;;;;;;;;;;;;0.74;42.59;102917.13;5061683;28;19916;-69
2023/04/15 00:17:53;;;;;;;;;;;;;;;0.74;42.61;102911.88;5061698;28;19913;-69
2023/04/15 00:20:19;;;;;;;;;;;;;;;0.74;42.41;102912.75;5061995;28;19939;-70
2023/04/15 00:22:45;;;;;;;;;;;;;;;0.72;42.70;102909.31;5060264;28;19975;-70
2023/04/15 00:25:10;;;;;;;;;;;;;;;0.69;42.72;102919.91;5058960;28;19966;-70
2023/04/15 00:27:37;;;;;;;;;;;;;;;0.68;43.03;102920.81;5061479;28;19912;-72
2023/04/15 00:30:03;;;;;;;;;;;;;;;0.68;42.92;102915.56;5061370;28;19963;-71
2023/04/15 00:32:28;;;;;;;;;;;;;;;0.69;42.68;102917.28;5060152;28;19917;-71
2023/04/15 00:34:54;;;;;;;;;;;;;;;0.71;42.96;102922.47;5055327;28;20280;-70
2023/04/15 00:37:19;;;;;;;;;;;;;;;0.70;42.49;102932.13;5054915;28;19913;-70
2023/04/15 00:39:44;;;;;;;;;;;;;;;0.67;43.08;102919.09;5070601;28;20349;-71
2023/04/15 00:42:10;;;;;;;;;;;;;;;0.67;42.95;102919.09;5054841;28;19913;-70
2023/04/15 00:44:36;;;;;;;;;;;;;;;0.66;43.38;102929.63;5054892;28;20312;-69
2023/04/15 00:47:02;;;;;;;;;;;;;;;0.65;42.92;102926.16;5054859;28;20016;-70
2023/04/15 00:49:28;;;;;;;;;;;;;;;0.66;42.77;102927.88;5054711;28;20368;-70
2023/04/15 00:51:53;;;;;;;;;;;;;;;0.66;43.26;102934.88;5054907;28;19935;-70
2023/04/15 00:54:18;;;;;;;;;;;;;;;0.65;43.01;102934.03;5054567;28;20275;-70
2023/04/15 00:56:44;;;;;;;;;;;;;;;0.63;42.82;102934.97;5054760;28;19916;-70
2023/04/15 00:59:10;;;;;;;;;;;;;;;0.65;43.10;102934.03;5056007;28;19913;-70
2023/04/15 01:01:36;;;;;;;;;;;;;;;0.60;42.57;102941.16;5056051;28;20272;-70
2023/04/15 01:04:02;;;;;;;;;;;;;;;0.58;42.67;102935.97;5056219;28;19936;-70
2023/04/15 01:06:28;;;;;;;;;;;;;;;0.59;42.78;102934.22;5055082;28;19916;-70
2023/04/15 01:08:54;;;;;;;;;;;;;;;0.60;42.55;102938.53;5054946;28;19912;-70
2023/04/15 01:11:19;;;;;;;;;;;;;;;0.60;43.11;102936.78;5054773;28;19912;-69
2023/04/15 01:13:45;;;;;;;;;;;;;;;0.58;43.19;102935.13;5054948;28;20360;-70
2023/04/15 01:16:11;;;;;;;;;;;;;;;0.63;43.04;102934.97;5054824;28;19944;-71
2023/04/15 01:18:37;;;;;;;;;;;;;;;0.60;42.94;102931.53;5055781;28;19975;-70
2023/04/15 01:21:04;;;;;;;;;;;;;;;0.59;43.23;102932.44;5059780;28;19959;-69
2023/04/15 01:23:30;;;;;;;;;;;;;;;0.61;43.55;102932.41;5064172;28;19923;-70
2023/04/15 01:25:56;;;;;;;;;;;;;;;0.64;43.30;102934.06;5070328;28;19963;-70
2023/04/15 01:28:21;;;;;;;;;;;;;;;0.60;42.81;102934.16;5063569;28;19971;-70
2023/04/15 01:30:47;;;;;;;;;;;;;;;0.64;42.89;102937.53;5059400;28;20328;-68
2023/04/15 01:33:12;;;;;;;;;;;;;;;0.65;43.55;102944.50;5057995;28;19967;-70
2023/04/15 01:35:56;;;;;;;;;;;;;;;0.65;43.04;102931.41;5071370;28;19919;-70
2023/04/15 01:38:21;;;;;;;;;;;;;;;0.64;43.10;102936.69;5059365;28;20338;-71
2023/04/15 01:40:47;;;;;;;;;;;;;;;0.64;43.63;102929.69;5077320;28;19920;-71
2023/04/15 01:43:14;;;;;;;;;;;;;;;0.61;43.35;102942.88;5056259;28;19912;-70
2023/04/15 01:45:41;;;;;;;;;;;;;;;0.70;43.41;102931.25;5054363;28;20371;-70
2023/04/15 01:48:08;;;;;;;;;;;;;;;0.69;42.93;102927.78;5053668;28;19913;-71
2023/04/15 01:50:36;;;;;;;;;;;;;;;0.69;43.15;102930.41;5053087;28;19913;-70
2023/04/15 01:53:03;;;;;;;;;;;;;;;0.65;43.10;102923.53;5053442;28;19912;-69
2023/04/15 01:55:30;;;;;;;;;;;;;;;0.65;43.37;102923.53;5055828;28;19917;-71
2023/04/15 01:57:57;;;;;;;;;;;;;;;0.60;43.47;102925.44;5073805;28;19939;-70
2023/04/15 02:00:23;;;;;;;;;;;;;;;0.59;43.08;102927.19;5078117;28;19940;-70
2023/04/15 02:02:50;;;;;;;;;;;;;;;0.59;42.76;102935.06;5060880;28;19976;-70
2023/04/15 02:05:18;;;;;;;;;;;;;;;0.60;42.82;102930.69;5054202;28;20353;-70
2023/04/15 02:07:44;;;;;;;;;;;;;;;0.60;43.07;102935.94;5054407;28;19921;-69
2023/04/15 02:10:12;;;;;;;;;;;;;;;0.63;43.30;102934.97;5053867;28;19919;-70
2023/04/15 02:12:39;;;;;;;;;;;;;;;0.61;43.06;102937.63;5055022;28;20357;-69
2023/04/15 02:15:06;;;;;;;;;;;;;;;0.62;43.90;102939.34;5053414;28;19912;-70
2023/04/15 02:17:33;;;;;;;;;;;;;;;0.61;43.06;102942.88;5053236;28;19912;-73
2023/04/15 02:20:00;;;;;;;;;;;;;;;0.63;43.42;102946.31;5053098;28;19919;-70
2023/04/15 02:22:26;;;;;;;;;;;;;;;0.64;43.05;102947.19;5053002;28;19912;-70
2023/04/15 02:24:53;;;;;;;;;;;;;;;0.66;42.87;102935.75;5053154;28;19942;-71
2023/04/15 02:27:21;;;;;;;;;;;;;;;0.66;43.03;102943.59;5053198;28;20356;-71
2023/04/15 02:29:50;;;;;;;;;;;;;;;0.67;43.07;102937.44;5053128;28;19912;-70
2023/04/15 02:32:17;;;;;;;;;;;;;;;0.69;43.26;102945.28;5068815;28;20267;-70
2023/04/15 02:34:44;;;;;;;;;;;;;;;0.70;43.12;102941.75;5053513;28;19916;-70
2023/04/15 02:37:11;;;;;;;;;;;;;;;0.71;43.53;102949.56;5053934;28;19917;-71
2023/04/15 02:39:38;;;;;;;;;;;;;;;0.73;43.05;102947.75;5052951;28;19913;-70
2023/04/15 02:42:04;;;;;;;;;;;;;;;0.75;43.18;102939.84;5052544;28;19913;-71
2023/04/15 02:44:31;;;;;;;;;;;;;;;0.75;43.09;102948.56;5052656;28;19913;-72
2023/04/15 02:46:58;;;;;;;;;;;;;;;0.78;43.13;102945.00;5052196;28;19912;-73
2023/04/15 02:49:24;;;;;;;;;;;;;;;0.78;42.63;102945.84;5052516;28;20378;-71
2023/04/15 02:51:51;;;;;;;;;;;;;;;0.79;42.55;102944.94;5052202;28;20370;-70
2023/04/15 02:54:18;;;;;;;;;;;;;;;0.78;42.71;102937.97;5052606;28;20352;-71
2023/04/15 02:56:45;;;;;;;;;;;;;;;0.83;42.95;102945.69;5053237;28;19919;-71
2023/04/15 02:59:11;;;;;;;;;;;;;;;0.82;42.97;102947.47;5053830;28;19917;-69
2023/04/15 03:01:38;;;;;;;;;;;;;;;0.85;42.62;102947.38;5051637;28;19913;-71
2023/04/15 03:04:07;;;;;;;;;;;;;;;0.87;43.27;102945.59;5052005;28;19917;-69
2023/04/15 03:06:34;;;;;;;;;;;;;;;0.92;42.86;102943.69;5052192;28;19927;-70
2023/04/15 03:09:01;;;;;;;;;;;;;;;0.89;42.25;102951.66;5052365;28;19916;-72
2023/04/15 03:11:31;;;;;;;;;;;;;;;0.91;42.47;102941.97;5052892;28;19923;-72
2023/04/15 03:13:58;;;;;;;;;;;;;;;0.95;42.37;102947.09;5052330;28;19919;-70
2023/04/15 03:16:24;;;;;;;;;;;;;;;0.98;42.59;102955.75;5052207;28;19913;-70
2023/04/15 03:18:51;;;;;;;;;;;;;;;1.03;42.43;102955.59;5052306;28;20267;-71
2023/04/15 03:21:18;;;;;;;;;;;;;;;1.06;42.27;102958.97;5052244;28;19912;-71
2023/04/15 03:23:45;;;;;;;;;;;;;;;1.09;42.52;102950.16;5055337;28;20366;-71
2023/04/15 03:26:22;;;;;;;;;;;;;;;1.12;42.07;102952.66;5053631;28;19920;-71
2023/04/15 03:28:49;;;;;;;;;;;;;;;1.17;41.95;102958.66;5057753;28;19919;-70
2023/04/15 03:31:15;;;;;;;;;;;;;;;1.14;42.19;102953.47;5061426;28;19985;-69
2023/04/15 03:33:42;;;;;;;;;;;;;;;1.18;41.76;102955.13;5057820;28;20019;-68
2023/04/15 03:36:09;;;;;;;;;;;;;;;1.16;41.74;102957.81;5057218;28;20340;-69
2023/04/15 03:38:35;;;;;;;;;;;;;;;1.17;41.79;102964.78;5055379;28;19919;-69
2023/04/15 03:41:02;;;;;;;;;;;;;;;1.21;42.00;102955.03;5055004;28;20263;-69
2023/04/15 03:43:28;;;;;;;;;;;;;;;1.25;41.96;102967.16;5055909;28;20750;-69
2023/04/15 03:45:55;;;;;;;;;;;;;;;1.28;41.47;102961.78;5056350;28;20362;-70
2023/04/15 03:48:21;;;;;;;;;;;;;;;1.33;42.07;102965.13;5055250;28;20360;-69
2023/04/15 03:50:48;;;;;;;;;;;;;;;1.35;41.96;102962.44;5054652;28;20371;-69
2023/04/15 03:53:14;;;;;;;;;;;;;;;1.41;42.04;102968.34;5054946;28;19919;-69
2023/04/15 03:55:41;;;;;;;;;;;;;;;1.48;41.70;102959.38;5070270;28;19919;-70
2023/04/15 03:58:11;;;;;;;;;;;;;;;1.52;41.46;102968.88;5055029;28;20345;-69
2023/04/15 04:00:38;;;;;;;;;;;;;;;1.50;41.12;102941.81;5060445;28;19919;-71
2023/04/15 04:03:05;;;;;;;;;;;;;;;1.66;41.44;102964.91;5060082;28;19917;-69
2023/04/15 04:05:31;;;;;;;;;;;;;;;1.66;41.05;102967.53;5060592;28;20051;-69
2023/04/15 04:07:58;;;;;;;;;;;;;;;1.69;41.17;102968.28;5060132;28;19923;-69
2023/04/15 04:10:25;;;;;;;;;;;;;;;1.78;41.34;102967.16;5058931;28;19923;-70
2023/04/15 04:12:51;;;;;;;;;;;;;;;1.87;41.07;102969.44;5057442;28;20280;-70
2023/04/15 04:15:18;;;;;;;;;;;;;;;1.95;40.52;102975.28;5061142;28;20003;-69
2023/04/15 04:17:45;;;;;;;;;;;;;;;1.94;40.57;102970.09;5061424;28;20019;-69
2023/04/15 04:20:11;;;;;;;;;;;;;;;2.01;41.17;102975.06;5057904;28;19919;-71
2023/04/15 04:22:41;;;;;;;;;;;;;;;2.10;40.60;102979.19;5055632;28;19913;-70
2023/04/15 04:25:09;;;;;;;;;;;;;;;2.18;40.75;102975.34;5055363;28;20278;-71
2023/04/15 04:27:35;;;;;;;;;;;;;;;2.23;40.25;102975.19;5054947;28;19913;-69
2023/04/15 04:30:02;;;;;;;;;;;;;;;2.22;40.00;102978.72;5054817;28;19913;-69
2023/04/15 04:32:29;;;;;;;;;;;;;;;2.20;40.30;102979.69;5054815;28;19913;-73
2023/04/15 04:34:55;;;;;;;;;;;;;;;2.21;39.67;102982.28;5054886;28;19938;-69
2023/04/15 04:37:22;;;;;;;;;;;;;;;2.30;39.56;102973.19;5054657;28;19919;-70
2023/04/15 04:39:49;;;;;;;;;;;;;;;2.37;39.96;102977.34;5054510;28;20364;-69
2023/04/15 04:42:15;;;;;;;;;;;;;;;2.42;39.33;102978.88;5054721;28;19919;-70
2023/04/15 04:44:42;;;;;;;;;;;;;;;2.53;39.64;102978.47;5054658;28;19913;-69
2023/04/15 04:47:09;;;;;;;;;;;;;;;2.57;39.42;102985.31;5054414;28;19913;-71
2023/04/15 04:49:35;;;;;;;;;;;;;;;2.58;38.62;102980.94;5054384;28;19919;-70
2023/04/15 04:52:02;;;;;;;;;;;;;;;2.68;39.18;102985.81;5054323;28;19919;-69
2023/04/15 04:54:30;;;;;;;;;;;;;;;2.75;38.26;102984.66;5055519;28;19919;-70
2023/04/15 04:56:56;;;;;;;;;;;;;;;2.79;38.55;102986.25;5054561;28;19913;-69
2023/04/15 04:59:23;;;;;;;;;;;;;;;2.88;38.52;102986.81;5054303;28;20372;-70
2023/04/15 05:01:50;;;;;;;;;;;;;;;2.83;38.76;102986.97;5054189;28;19912;-69
2023/04/15 05:04:16;;;;;;;;;;;;;;;2.87;38.76;102988.59;5036665;28;20365;-70
2023/04/15 05:06:43;;;;;;;;;;;;;;;3.00;38.59;102983.72;5071784;28;20364;-70
2023/04/15 05:09:09;;;;;;;;;;;;;;;2.98;37.88;102996.09;5077742;28;19956;-71
2023/04/15 05:11:36;;;;;;;;;;;;;;;2.97;38.02;102994.38;5069111;28;19984;-69
2023/04/15 05:14:03;;;;;;;;;;;;;;;3.02;38.02;102976.63;5058479;28;19913;-69
2023/04/15 05:16:29;;;;;;;;;;;;;;;3.00;38.01;102989.84;5055604;28;19913;-70
2023/04/15 05:18:56;;;;;;;;;;;;;;;3.02;37.99;102995.06;5054712;28;20275;-70
2023/04/15 05:21:22;;;;;;;;;;;;;;;3.09;37.71;102992.09;5054915;28;19912;-69
2023/04/15 05:23:49;;;;;;;;;;;;;;;3.18;37.88;102990.91;5053775;28;19913;-71
2023/04/15 05:26:16;;;;;;;;;;;;;;;3.19;37.58;102995.25;5053731;28;19912;-70
2023/04/15 05:28:43;;;;;;;;;;;;;;;3.14;37.54;102999.81;5053845;28;19913;-69
2023/04/15 05:31:09;;;;;;;;;;;;;;;3.12;37.70;102991.13;5054050;28;19913;-70
2023/04/15 05:33:36;;;;;;;;;;;;;;;3.14;37.97;102994.56;5053683;28;19919;-71
2023/04/15 05:36:02;;;;;;;;;;;;;;;3.16;37.95;102992.72;5053598;28;20094;-69
2023/04/15 05:38:29;;;;;;;;;;;;;;;3.18;37.75;102998.81;5053536;28;20271;-70
2023/04/15 05:40:56;;;;;;;;;;;;;;;3.27;37.92;102992.31;5053422;28;19920;-70
2023/04/15 05:43:22;;;;;;;;;;;;;;;3.40;37.59;102993.53;5053392;28;19913;-70
2023/04/15 05:45:49;;;;;;;;;;;;;;;3.49;37.38;103000.22;5053225;28;20394;-70
2023/04/15 05:48:15;;;;;;;;;;;;;;;3.64;37.10;102996.94;5068599;28;19938;-70
2023/04/15 05:50:42;;;;;;;;;;;;;;;3.60;36.85;103000.63;5053003;28;19913;-69
2023/04/15 05:53:09;;;;;;;;;;;;;;;3.63;36.63;103001.34;5053485;28;19919;-71
2023/04/15 05:55:35;;;;;;;;;;;;;;;3.74;37.03;102995.63;5053638;28;19913;-70
2023/04/15 05:58:02;;;;;;;;;;;;;;;3.86;36.82;102997.78;5053516;28;19921;-70
2023/04/15 06:00:30;;;;;;;;;;;;;;;3.87;36.09;102994.22;5053395;28;19913;-72
2023/04/15 06:02:57;;;;;;;;;;;;;;;3.97;36.72;102992.88;5053247;28;19919;-70
2023/04/15 06:05:25;;;;;;;;;;;;;;;4.14;36.00;103001.88;5053285;28;19916;-70
2023/04/15 06:07:51;;;;;;;;;;;;;;;4.26;35.77;103001.31;5052983;28;19941;-70
2023/04/15 06:10:18;;;;;;;;;;;;;;;4.22;35.58;103000.59;5046487;28;19925;-70
2023/04/15 06:12:44;;;;;;;;;;;;;;;4.28;35.22;103000.31;5040012;28;20353;-69
2023/04/15 06:15:11;;;;;;;;;;;;;;;4.30;35.71;103002.91;5051426;28;19923;-71
2023/04/15 06:20:59;;;;;;;;;;;;;;;4.61;35.11;103013.78;5047905;28;19920;-70
2023/04/15 06:23:26;;;;;;;;;;;;;;;4.57;34.60;103012.22;5044327;28;19917;-70
2023/04/15 06:25:52;;;;;;;;;;;;;;;4.53;34.68;103010.66;5044595;28;19917;-70
2023/04/15 06:28:19;;;;;;;;;;;;;;;4.62;34.90;103015.50;5046117;28;19912;-71
2023/04/15 06:30:46;;;;;;;;;;;;;;;4.70;34.57;103007.25;5043543;28;19923;-71
2023/04/15 06:33:12;;;;;;;;;;;;;;;4.74;34.44;103007.97;5041965;28;19913;-70
2023/04/15 06:35:39;;;;;;;;;;;;;;;4.72;34.10;103002.78;5041060;28;19912;-71
2023/04/15 06:38:06;;;;;;;;;;;;;;;4.68;34.24;103013.53;5045799;28;19917;-73
2023/04/15 06:40:32;;;;;;;;;;;;;;;4.52;34.09;103010.72;5044653;28;20257;-69
2023/04/15 06:43:00;;;;;;;;;;;;;;;4.53;34.44;103005.38;5043854;28;19919;-71
2023/04/15 06:45:26;;;;;;;;;;;;;;;4.67;34.41;102994.22;5033980;28;19912;-74
2023/04/15 06:47:53;;;;;;;;;;;;;;;4.82;33.87;103000.56;5042659;28;20287;-71
2023/04/15 06:50:19;;;;;;;;;;;;;;;4.86;33.62;103002.13;5048830;28;19913;-69
2023/04/15 06:52:46;;;;;;;;;;;;;;;5.04;33.83;103000.41;5051874;28;19913;-70
2023/04/15 06:55:13;;;;;;;;;;;;;;;5.19;33.58;102995.25;5040976;28;19913;-72
2023/04/15 06:57:43;;;;;;;;;;;;;;;5.33;33.32;102996.38;5040621;28;20281;-71
2023/04/15 07:00:10;;;;;;;;;;;;;;;5.36;33.36;103001.53;5023855;28;19913;-71
2023/04/15 07:02:37;;;;;;;;;;;;;;;5.44;32.76;103002.00;5046864;28;19924;-69
2023/04/15 07:05:29;;;;;;;;;;;;;;;5.51;32.79;103006.06;5039518;28;19917;-74
2023/04/15 07:07:57;;;;;;;;;;;;;;;5.52;32.27;103002.50;5037924;28;19917;-67
2023/04/15 07:10:24;;;;;;;;;;;;;;;5.64;33.17;103007.16;5031883;28;19999;-70
2023/04/15 07:12:51;;;;;;;;;;;;;;;5.65;32.44;103016.81;5030510;28;19919;-71
2023/04/15 07:15:18;;;;;;;;;;;;;;;5.70;33.17;103014.78;5031600;28;19920;-70
2023/04/15 07:17:45;;;;;;;;;;;;;;;5.73;32.18;103005.84;5031092;28;19917;-76
2023/04/15 07:20:11;;;;;;;;;;;;;;;5.68;32.21;103010.50;5032106;28;19913;-70
2023/04/15 07:22:38;;;;;;;;;;;;;;;5.60;32.77;103016.19;5031976;28;19913;-72
2023/04/15 07:25:05;;;;;;;;;;;;;;;5.58;32.54;103015.41;5032047;28;19913;-70
2023/04/15 07:27:32;;;;;;;;;;;;;;;5.61;32.33;103015.25;5032016;28;19913;-70
2023/04/15 07:29:58;;;;;;;;;;;;;;;5.77;33.19;103000.31;5031987;28;19917;-70
2023/04/15 07:32:28;;;;;;;;;;;;;;;5.81;31.93;103009.00;5031941;28;19924;-71
2023/04/15 07:34:58;;;;;;;;;;;;;;;5.60;32.42;102995.03;5034540;28;19913;-76
2023/04/15 07:37:25;;;;;;;;;;;;;;;5.69;32.85;103015.72;5035888;28;19913;-71
2023/04/15 07:39:52;;;;;;;;;;;;;;;5.71;32.15;103018.28;5035816;28;19913;-73
2023/04/15 07:42:19;;;;;;;;;;;;;;;5.87;32.61;103013.97;5034269;28;19919;-72
2023/04/15 07:44:45;;;;;;;;;;;;;;;6.03;31.56;103014.91;5034378;28;19913;-75
2023/04/15 07:47:12;;;;;;;;;;;;;;;6.06;31.96;103019.19;5035589;28;19919;-75
2023/04/15 07:49:40;;;;;;;;;;;;;;;6.07;31.97;103019.13;5036049;28;19913;-73
2023/04/15 07:52:07;;;;;;;;;;;;;;;6.17;32.19;103011.56;5035508;28;20319;-75
2023/04/15 07:54:33;;;;;;;;;;;;;;;6.39;31.58;103014.81;5035152;28;19913;-70
2023/04/15 07:57:00;;;;;;;;;;;;;;;6.47;31.67;103017.91;5035567;28;19919;-72
2023/04/15 07:59:28;;;;;;;;;;;;;;;6.51;31.65;103019.47;5035449;28;19920;-71
2023/04/15 08:01:55;;;;;;;;;;;;;;;6.56;31.14;103023.66;5036188;28;19913;-71
2023/04/15 08:04:31;;;;;;;;;;;;;;;6.59;30.93;103012.88;5035684;28;19917;-72
2023/04/15 08:06:57;;;;;;;;;;;;;;;6.67;30.87;103016.00;5043796;28;20031;-72
2023/04/15 08:09:26;;;;;;;;;;;;;;;6.69;31.25;103025.56;5035514;28;19923;-73
2023/04/15 08:11:52;;;;;;;;;;;;;;;6.74;30.52;103017.38;5034459;28;19913;-78
2023/04/15 08:14:19;;;;;;;;;;;;;;;6.80;31.06;103017.03;5034372;28;19919;-74
2023/04/15 08:16:49;;;;;;;;;;;;;;;6.83;31.75;103015.09;5045238;28;19912;-72
2023/04/15 08:19:16;;;;;;;;;;;;;;;6.91;31.16;103013.81;5060282;28;19917;-71
2023/04/15 08:21:42;;;;;;;;;;;;;;;6.94;30.71;103010.97;5060080;28;19981;-70
2023/04/15 08:24:12;;;;;;;;;;;;;;;7.08;31.11;103017.25;5081730;28;19936;-71
2023/04/15 08:26:39;;;;;;;;;;;;;;;7.07;30.33;103012.03;5059745;28;19913;-70
2023/04/15 08:29:05;;;;;;;;;;;;;;;7.03;30.37;103008.69;5057529;28;20292;-70
2023/04/15 08:31:32;;;;;;;;;;;;;;;7.12;30.35;103005.53;5043760;28;20269;-69
2023/04/15 08:33:59;;;;;;;;;;;;;;;7.25;30.46;103000.41;5043251;28;19916;-71
2023/04/15 08:36:25;;;;;;;;;;;;;;;7.18;31.28;103006.97;5045863;28;20488;-68
2023/04/15 08:38:52;;;;;;;;;;;;;;;7.22;30.84;102997.91;5046044;28;20364;-72
2023/04/15 08:41:24;;;;;;;;;;;;;;;7.23;30.79;102998.75;5041954;28;19913;-70
2023/04/15 08:43:57;;;;;;;;;;;;;;;7.30;30.46;103003.66;5043645;28;20395;-70
2023/04/15 08:46:24;;;;;;;;;;;;;;;7.27;30.35;103003.84;5045670;28;19916;-73
2023/04/15 08:48:55;;;;;;;;;;;;;;;7.29;30.24;102996.66;5054505;28;19919;-73
2023/04/15 08:51:22;;;;;;;;;;;;;;;7.24;29.57;102996.06;5036598;28;19913;-73
2023/04/15 08:53:49;;;;;;;;;;;;;;;7.18;29.95;102992.88;5054337;28;19919;-72
2023/04/15 08:56:17;;;;;;;;;;;;;;;7.31;29.78;102983.31;5036348;28;19913;-73
2023/04/15 08:58:44;;;;;;;;;;;;;;;7.50;30.54;102996.34;5054477;28;20276;-72
2023/04/15 09:01:11;;;;;;;;;;;;;;;7.59;29.86;102996.69;5044872;28;20387;-70
2023/04/15 09:03:39;;;;;;;;;;;;;;;7.67;29.04;102989.13;5034389;28;19923;-72
2023/04/15 09:06:06;;;;;;;;;;;;;;;7.72;29.04;102986.19;5034481;28;19917;-71
2023/04/15 09:08:35;;;;;;;;;;;;;;;7.71;28.96;102984.50;5050525;28;19912;-73
2023/04/15 09:11:02;;;;;;;;;;;;;;;7.70;29.50;102985.44;5054937;28;20391;-70
2023/04/15 09:13:29;;;;;;;;;;;;;;;7.46;29.35;102985.91;5033081;28;19923;-70
2023/04/15 09:15:57;;;;;;;;;;;;;;;7.42;29.62;102983.53;5052685;28;19927;-73
2023/04/15 09:18:28;;;;;;;;;;;;;;;7.43;28.82;102980.78;5053955;28;19924;-70
2023/04/15 09:20:55;;;;;;;;;;;;;;;7.53;28.80;102988.25;5054068;28;20276;-72
2023/04/15 09:23:22;;;;;;;;;;;;;;;7.67;28.88;102985.63;5053825;28;19923;-70
2023/04/15 09:25:49;;;;;;;;;;;;;;;7.72;28.41;102987.06;5053780;28;19917;-72
2023/04/15 09:28:22;;;;;;;;;;;;;;;7.76;29.12;102988.59;5053698;28;19913;-71
2023/04/15 09:30:50;;;;;;;;;;;;;;;7.83;29.01;102980.28;5053631;28;19916;-71
2023/04/15 09:33:17;;;;;;;;;;;;;;;7.92;30.12;102979.72;5053766;28;19913;-71
2023/04/15 09:35:54;;;;;;;;;;;;;;;8.09;29.55;102979.56;5053986;28;19935;-70
2023/04/15 09:38:21;;;;;;;;;;;;;;;8.07;28.96;102981.44;5034088;28;19913;-71
2023/04/15 09:40:47;;;;;;;;;;;;;;;8.08;29.10;102984.00;5033878;28;19920;-71
2023/04/15 09:43:16;;;;;;;;;;;;;;;8.27;28.80;102986.41;5033804;28;19919;-70
2023/04/15 09:45:52;;;;;;;;;;;;;;;8.45;28.42;102988.94;5034466;28;19913;-72
2023/04/15 09:48:20;;;;;;;;;;;;;;;8.42;28.83;102981.16;5033215;28;20027;-71
2023/04/15 09:50:48;;;;;;;;;;;;;;;8.25;29.35;102980.34;5033216;28;19917;-72
2023/04/15 09:53:15;;;;;;;;;;;;;;;8.23;28.84;102970.78;5033541;28;19913;-72
2023/04/15 09:55:48;;;;;;;;;;;;;;;8.16;28.32;102982.72;5042985;28;19913;-73
2023/04/15 09:58:19;;;;;;;;;;;;;;;7.97;28.32;102983.81;5040313;28;20319;-70
2023/04/15 10:00:49;;;;;;;;;;;;;;;8.00;28.49;102974.81;5040214;28;19913;-69
2023/04/15 10:03:18;;;;;;;;;;;;;;;8.08;28.59;102985.81;5045982;28;19923;-72
2023/04/15 10:05:46;;;;;;;;;;;;;;;7.94;28.55;102986.66;5044081;28;20007;-72
2023/04/15 10:08:14;;;;;;;;;;;;;;;7.98;29.26;102977.56;5053051;28;20372;-69
2023/04/15 10:10:40;;;;;;;;;;;;;;;8.15;28.87;102981.00;5034823;28;19917;-70
2023/04/15 10:13:08;;;;;;;;;;;;;;;8.34;29.51;102979.81;5032863;28;19917;-71
2023/04/15 10:15:35;;;;;;;;;;;;;;;8.40;29.43;102988.38;5032810;28;19912;-68
2023/04/15 10:18:02;;;;;;;;;;;;;;;8.43;28.79;102983.72;5040909;28;19923;-71
2023/04/15 10:20:29;;;;;;;;;;;;;;;8.52;28.98;102976.97;5043124;28;19916;-70
2023/04/15 10:22:56;;;;;;;;;;;;;;;8.69;28.92;102979.47;5052109;28;20414;-70
2023/04/15 10:25:24;;;;;;;;;;;;;;;8.60;29.03;102972.03;5052592;28;19919;-68
2023/04/15 10:27:51;;;;;;;;;;;;;;;8.56;28.37;102983.81;5052838;28;19912;-71
2023/04/15 10:30:18;;;;;;;;;;;;;;;8.61;29.30;102977.25;5052682;28;20276;-70
2023/04/15 10:32:45;;;;;;;;;;;;;;;8.65;28.17;102977.91;5052959;28;19916;-71
2023/04/15 10:35:12;;;;;;;;;;;;;;;8.70;27.88;102975.84;5054805;28;19917;-73
2023/04/15 10:37:39;;;;;;;;;;;;;;;8.63;28.47;102969.19;5053897;28;19913;-68
2023/04/15 10:40:26;;;;;;;;;;;;;;;8.52;28.16;102974.31;5054807;28;19913;-68
2023/04/15 10:42:56;;;;;;;;;;;;;;;8.56;29.12;102970.53;5054793;28;19920;-70
2023/04/15 10:45:26;;;;;;;;;;;;;;;8.62;27.58;102972.78;5035148;28;19913;-71
2023/04/15 10:47:56;;;;;;;;;;;;;;;8.71;28.36;102960.75;5052601;28;19913;-72
2023/04/15 10:50:27;;;;;;;;;;;;;;;8.78;28.27;102964.72;5052472;28;19913;-69
2023/04/15 10:52:54;;;;;;;;;;;;;;;8.73;28.06;102965.03;5052497;28;20349;-69
2023/04/15 10:55:25;;;;;;;;;;;;;;;8.59;28.00;102968.53;5052550;28;19917;-70
2023/04/15 10:57:52;;;;;;;;;;;;;;;8.53;27.39;102960.09;5052609;28;19917;-69
2023/04/15 11:00:20;;;;;;;;;;;;;;;8.49;28.36;102963.91;5052472;28;19957;-70
2023/04/15 11:02:55;;;;;;;;;;;;;;;8.35;28.07;102964.75;5052182;28;20329;-69
2023/04/15 11:05:31;;;;;;;;;;;;;;;8.24;28.19;102961.88;5034466;28;19923;-71
2023/04/15 11:07:58;;;;;;;;;;;;;;;8.25;28.63;102958.25;5053030;28;19916;-72
2023/04/15 11:10:25;;;;;;;;;;;;;;;8.47;29.01;102956.03;5056089;28;19913;-70
2023/04/15 11:12:53;;;;;;;;;;;;;;;8.49;28.92;102963.91;5055953;28;19917;-70
2023/04/15 11:15:40;;;;;;;;;;;;;;;8.34;28.40;102957.72;5056048;28;19935;-71
2023/04/15 11:18:17;;;;;;;;;;;;;;;8.33;28.63;102958.63;5055883;28;19995;-70
2023/04/15 11:20:46;;;;;;;;;;;;;;;8.35;27.05;102959.44;5055964;28;19922;-71
2023/04/15 11:23:19;;;;;;;;;;;;;;;8.33;27.15;102959.53;5055943;28;20357;-69
2023/04/15 11:25:47;;;;;;;;;;;;;;;8.30;27.19;102950.88;5055740;28;19919;-70
2023/04/15 11:28:13;;;;;;;;;;;;;;;8.36;26.76;102946.06;5055734;28;19923;-73
2023/04/15 11:30:41;;;;;;;;;;;;;;;8.32;27.04;102948.97;5037288;28;20287;-68
2023/04/15 11:33:08;;;;;;;;;;;;;;;8.38;27.25;102943.31;5055593;28;19913;-71
2023/04/15 11:35:35;;;;;;;;;;;;;;;8.49;27.48;102947.97;5055960;28;19919;-70
2023/04/15 11:38:07;;;;;;;;;;;;;;;8.66;26.98;102953.06;5056699;28;19919;-73
2023/04/15 11:40:34;;;;;;;;;;;;;;;8.58;27.02;102958.84;5055826;28;19972;-73
2023/04/15 11:43:14;;;;;;;;;;;;;;;8.47;27.46;102944.56;5080002;28;19905;-74
2023/04/15 11:45:53;;;;;;;;;;;;;;;8.30;26.85;102941.09;5050535;28;20022;-69
2023/04/15 11:48:27;;;;;;;;;;;;;;;8.21;27.48;102946.13;5056968;28;19919;-73
2023/04/15 11:51:00;;;;;;;;;;;;;;;8.26;27.10;102949.34;5057074;28;19923;-71
2023/04/15 11:53:44;;;;;;;;;;;;;;;8.24;27.66;102938.81;5056766;28;20378;-72
2023/04/15 11:56:15;;;;;;;;;;;;;;;8.26;27.81;102926.31;5055529;28;19924;-70
2023/04/15 11:58:42;;;;;;;;;;;;;;;8.33;27.26;102929.44;5043491;28;19920;-70
2023/04/15 12:01:07;;;;;;;;;;;;;;;8.35;27.28;102935.53;5036936;28;20418;-71
2023/04/15 12:03:36;;;;;;;;;;;;;;;8.18;27.63;102933.91;5046626;28;20059;-72
2023/04/15 12:06:06;;;;;;;;;;;;;;;8.16;27.71;102925.19;5029531;28;19917;-73
2023/04/15 12:08:47;;;;;;;;;;;;;;;8.18;28.22;102920.63;5047579;28;19959;-73
2023/04/15 12:11:12;;;;;;;;;;;;;;;8.16;27.42;102919.03;5041087;28;20013;-70
2023/04/15 12:13:42;;;;;;;;;;;;;;;8.19;27.98;102916.16;5041926;28;19917;-69
2023/04/15 12:16:08;;;;;;;;;;;;;;;8.28;27.78;102904.97;5047602;28;20427;-71
2023/04/15 12:18:33;;;;;;;;;;;;;;;8.28;28.26;102916.44;5039712;28;19917;-76
2023/04/15 12:21:04;;;;;;;;;;;;;;;8.32;28.16;102912.66;5032712;28;19913;-76
2023/04/15 12:23:29;;;;;;;;;;;;;;;8.16;28.10;102911.91;5043624;28;19974;-73
2023/04/15 12:25:55;;;;;;;;;;;;;;;8.14;27.82;102913.81;5043981;28;19913;-71
2023/04/15 12:28:20;;;;;;;;;;;;;;;8.25;28.81;102911.34;5045806;28;19959;-71
2023/04/15 12:30:50;;;;;;;;;;;;;;;8.33;28.39;102909.06;5045596;28;19913;-71
2023/04/15 12:33:16;;;;;;;;;;;;;;;8.48;27.82;102909.09;5051813;28;19913;-70
2023/04/15 12:35:41;;;;;;;;;;;;;;;8.52;28.15;102907.94;5054687;28;19920;-71
2023/04/15 12:38:09;;;;;;;;;;;;;;;8.62;27.96;102893.09;5048481;28;20265;-73
2023/04/15 12:40:35;;;;;;;;;;;;;;;8.83;27.72;102894.41;5035172;28;20390;-70
2023/04/15 12:43:00;;;;;;;;;;;;;;;8.82;28.08;102891.84;5042304;28;19959;-70
2023/04/15 12:45:26;;;;;;;;;;;;;;;8.77;27.74;102897.47;5042126;28;19913;-69
2023/04/15 12:47:51;;;;;;;;;;;;;;;8.79;28.42;102897.34;5042967;28;19914;-70
2023/04/15 12:50:17;;;;;;;;;;;;;;;8.90;28.15;102887.72;5039392;28;19924;-71
2023/04/15 12:52:42;;;;;;;;;;;;;;;8.88;27.70;102899.41;5038688;28;19936;-68